sensor_id;sensor_type;location;lat;lon;timestamp;P1;durP1;ratioP1;P2;durP2;ratioP2
9720;SDS011;4899;42.644;23.366;2023-01-16T00:00:21;42.23;;;28.17;;
9720;SDS011;4899;42.644;23.366;2023-01-16T00:02:47;49.70;;;31.37;;
9720;SDS011;4899;42.644;23.366;2023-01-16T00:05:12;43.07;;;29.80;;
9720;SDS011;4899;42.644;23.366;2023-01-16T00:07:38;44.67;;;30.57;;
9720;SDS011;4899;42.644;23.366;2023-01-16T00:10:04;43.73;;;29.67;;
9720;SDS011;4899;42.644;23.366;2023-01-16T00:12:30;41.30;;;28.53;;
9720;SDS011;4899;42.644;23.366;2023-01-16T00:14:55;45.17;;;29.87;;
9720;SDS011;4899;42.644;23.366;2023-01-16T00:17:21;40.80;;;27.70;;
9720;SDS011;4899;42.644;23.366;2023-01-16T00:19:47;40.60;;;27.60;;
9720;SDS011;4899;42.644;23.366;2023-01-16T00:22:13;43.70;;;27.87;;
9720;SDS011;4899;42.644;23.366;2023-01-16T00:24:38;37.80;;;25.50;;
9720;SDS011;4899;42.644;23.366;2023-01-16T00:27:04;43.00;;;28.77;;
9720;SDS011;4899;42.644;23.366;2023-01-16T00:29:29;42.90;;;28.53;;
9720;SDS011;4899;42.644;23.366;2023-01-16T00:31:55;47.23;;;29.20;;
9720;SDS011;4899;42.644;23.366;2023-01-16T00:34:20;47.17;;;29.33;;
9720;SDS011;4899;42.644;23.366;2023-01-16T00:36:46;45.07;;;27.93;;
9720;SDS011;4899;42.644;23.366;2023-01-16T00:39:11;44.67;;;29.47;;
9720;SDS011;4899;42.644;23.366;2023-01-16T00:41:37;44.33;;;27.20;;
9720;SDS011;4899;42.644;23.366;2023-01-16T00:44:03;40.67;;;26.10;;
9720;SDS011;4899;42.644;23.366;2023-01-16T00:46:28;44.80;;;28.53;;
9720;SDS011;4899;42.644;23.366;2023-01-16T00:48:55;42.83;;;26.67;;
9720;SDS011;4899;42.644;23.366;2023-01-16T00:51:21;39.20;;;26.30;;
9720;SDS011;4899;42.644;23.366;2023-01-16T00:53:46;36.47;;;24.97;;
9720;SDS011;4899;42.644;23.366;2023-01-16T00:56:12;39.17;;;25.73;;
9720;SDS011;4899;42.644;23.366;2023-01-16T00:58:38;38.83;;;24.70;;
9720;SDS011;4899;42.644;23.366;2023-01-16T01:01:04;36.70;;;24.70;;
9720;SDS011;4899;42.644;23.366;2023-01-16T01:03:30;38.03;;;26.40;;
9720;SDS011;4899;42.644;23.366;2023-01-16T01:05:56;37.83;;;26.43;;
9720;SDS011;4899;42.644;23.366;2023-01-16T01:08:21;35.70;;;24.07;;
9720;SDS011;4899;42.644;23.366;2023-01-16T01:10:47;36.07;;;24.37;;
9720;SDS011;4899;42.644;23.366;2023-01-16T01:13:13;36.63;;;24.90;;
9720;SDS011;4899;42.644;23.366;2023-01-16T01:15:39;32.07;;;24.13;;
9720;SDS011;4899;42.644;23.366;2023-01-16T01:18:04;37.10;;;25.83;;
9720;SDS011;4899;42.644;23.366;2023-01-16T01:20:30;43.33;;;26.97;;
9720;SDS011;4899;42.644;23.366;2023-01-16T01:22:55;23.13;;;17.43;;
9720;SDS011;4899;42.644;23.366;2023-01-16T01:25:21;22.63;;;18.57;;
9720;SDS011;4899;42.644;23.366;2023-01-16T01:27:46;28.03;;;21.40;;
9720;SDS011;4899;42.644;23.366;2023-01-16T01:30:12;28.23;;;21.50;;
9720;SDS011;4899;42.644;23.366;2023-01-16T01:32:37;29.80;;;20.60;;
9720;SDS011;4899;42.644;23.366;2023-01-16T01:35:04;28.40;;;20.83;;
9720;SDS011;4899;42.644;23.366;2023-01-16T01:37:31;30.30;;;20.37;;
9720;SDS011;4899;42.644;23.366;2023-01-16T01:39:57;27.53;;;19.93;;
9720;SDS011;4899;42.644;23.366;2023-01-16T01:42:22;32.37;;;22.17;;
9720;SDS011;4899;42.644;23.366;2023-01-16T01:45:11;34.33;;;22.37;;
9720;SDS011;4899;42.644;23.366;2023-01-16T01:47:41;33.23;;;22.40;;
9720;SDS011;4899;42.644;23.366;2023-01-16T01:50:16;31.27;;;21.80;;
9720;SDS011;4899;42.644;23.366;2023-01-16T01:52:46;31.13;;;20.30;;
9720;SDS011;4899;42.644;23.366;2023-01-16T01:55:13;31.70;;;22.70;;
9720;SDS011;4899;42.644;23.366;2023-01-16T01:57:41;34.30;;;24.17;;
9720;SDS011;4899;42.644;23.366;2023-01-16T02:00:14;33.00;;;22.87;;
9720;SDS011;4899;42.644;23.366;2023-01-16T02:02:43;32.43;;;22.07;;
9720;SDS011;4899;42.644;23.366;2023-01-16T02:05:16;29.67;;;21.10;;
9720;SDS011;4899;42.644;23.366;2023-01-16T02:07:46;28.43;;;21.27;;
9720;SDS011;4899;42.644;23.366;2023-01-16T02:10:20;31.23;;;21.10;;
9720;SDS011;4899;42.644;23.366;2023-01-16T02:12:53;34.27;;;22.37;;
9720;SDS011;4899;42.644;23.366;2023-01-16T02:15:19;26.13;;;19.70;;
9720;SDS011;4899;42.644;23.366;2023-01-16T02:17:47;20.00;;;14.83;;
9720;SDS011;4899;42.644;23.366;2023-01-16T02:20:32;23.00;;;15.90;;
9720;SDS011;4899;42.644;23.366;2023-01-16T02:23:29;23.57;;;17.13;;
9720;SDS011;4899;42.644;23.366;2023-01-16T02:26:29;23.03;;;16.60;;
9720;SDS011;4899;42.644;23.366;2023-01-16T02:37:45;40.57;;;22.93;;
9720;SDS011;4899;42.644;23.366;2023-01-16T02:46:20;38.57;;;23.97;;
9720;SDS011;4899;42.644;23.366;2023-01-16T02:48:50;41.53;;;24.37;;
9720;SDS011;4899;42.644;23.366;2023-01-16T02:56:24;43.00;;;24.33;;
9720;SDS011;4899;42.644;23.366;2023-01-16T02:58:56;38.63;;;22.70;;
9720;SDS011;4899;42.644;23.366;2023-01-16T03:01:22;34.23;;;19.53;;
9720;SDS011;4899;42.644;23.366;2023-01-16T03:11:25;36.00;;;22.07;;
9720;SDS011;4899;42.644;23.366;2023-01-16T03:21:58;29.27;;;19.77;;
9720;SDS011;4899;42.644;23.366;2023-01-16T03:35:58;32.87;;;21.47;;
9720;SDS011;4899;42.644;23.366;2023-01-16T03:38:38;29.30;;;19.33;;
9720;SDS011;4899;42.644;23.366;2023-01-16T03:41:10;28.57;;;19.33;;
9720;SDS011;4899;42.644;23.366;2023-01-16T03:43:40;31.13;;;19.67;;
9720;SDS011;4899;42.644;23.366;2023-01-16T03:46:09;35.00;;;21.13;;
9720;SDS011;4899;42.644;23.366;2023-01-16T03:48:53;33.10;;;21.20;;
9720;SDS011;4899;42.644;23.366;2023-01-16T03:51:30;31.47;;;20.87;;
9720;SDS011;4899;42.644;23.366;2023-01-16T03:56:43;27.60;;;17.30;;
9720;SDS011;4899;42.644;23.366;2023-01-16T03:59:14;33.47;;;21.07;;
9720;SDS011;4899;42.644;23.366;2023-01-16T04:01:55;30.33;;;19.63;;
9720;SDS011;4899;42.644;23.366;2023-01-16T04:04:25;30.90;;;18.50;;
9720;SDS011;4899;42.644;23.366;2023-01-16T04:06:53;27.73;;;18.03;;
9720;SDS011;4899;42.644;23.366;2023-01-16T04:09:21;26.17;;;17.80;;
9720;SDS011;4899;42.644;23.366;2023-01-16T04:11:54;27.27;;;18.27;;
9720;SDS011;4899;42.644;23.366;2023-01-16T04:14:23;29.20;;;17.63;;
9720;SDS011;4899;42.644;23.366;2023-01-16T04:16:50;34.63;;;19.77;;
9720;SDS011;4899;42.644;23.366;2023-01-16T04:19:16;31.53;;;18.03;;
9720;SDS011;4899;42.644;23.366;2023-01-16T04:21:45;29.43;;;17.07;;
9720;SDS011;4899;42.644;23.366;2023-01-16T04:24:12;213.13;;;27.57;;
9720;SDS011;4899;42.644;23.366;2023-01-16T04:26:39;90.80;;;26.23;;
9720;SDS011;4899;42.644;23.366;2023-01-16T04:29:05;62.47;;;25.60;;
9720;SDS011;4899;42.644;23.366;2023-01-16T04:31:30;75.60;;;25.63;;
9720;SDS011;4899;42.644;23.366;2023-01-16T04:33:56;69.27;;;25.07;;
9720;SDS011;4899;42.644;23.366;2023-01-16T04:36:22;112.40;;;26.10;;
9720;SDS011;4899;42.644;23.366;2023-01-16T04:38:48;54.73;;;24.53;;
9720;SDS011;4899;42.644;23.366;2023-01-16T04:41:13;264.13;;;31.77;;
9720;SDS011;4899;42.644;23.366;2023-01-16T04:43:59;250.57;;;30.13;;
9720;SDS011;4899;42.644;23.366;2023-01-16T04:46:25;99.13;;;25.33;;
9720;SDS011;4899;42.644;23.366;2023-01-16T04:48:50;97.33;;;24.07;;
9720;SDS011;4899;42.644;23.366;2023-01-16T04:51:16;159.60;;;29.70;;
9720;SDS011;4899;42.644;23.366;2023-01-16T04:53:41;142.37;;;28.73;;
9720;SDS011;4899;42.644;23.366;2023-01-16T04:56:07;180.47;;;26.27;;
9720;SDS011;4899;42.644;23.366;2023-01-16T04:58:32;123.50;;;26.13;;
9720;SDS011;4899;42.644;23.366;2023-01-16T05:00:58;121.10;;;23.90;;
9720;SDS011;4899;42.644;23.366;2023-01-16T05:03:23;182.17;;;25.13;;
9720;SDS011;4899;42.644;23.366;2023-01-16T05:05:49;48.60;;;22.17;;
9720;SDS011;4899;42.644;23.366;2023-01-16T05:08:15;95.17;;;24.60;;
9720;SDS011;4899;42.644;23.366;2023-01-16T05:10:43;116.77;;;24.23;;
9720;SDS011;4899;42.644;23.366;2023-01-16T05:13:09;161.73;;;29.03;;
9720;SDS011;4899;42.644;23.366;2023-01-16T05:15:34;101.73;;;25.77;;
9720;SDS011;4899;42.644;23.366;2023-01-16T05:18:00;53.83;;;20.80;;
9720;SDS011;4899;42.644;23.366;2023-01-16T05:20:26;63.10;;;22.83;;
9720;SDS011;4899;42.644;23.366;2023-01-16T05:22:52;78.57;;;24.20;;
9720;SDS011;4899;42.644;23.366;2023-01-16T05:25:17;70.57;;;25.13;;
9720;SDS011;4899;42.644;23.366;2023-01-16T05:27:42;66.00;;;25.60;;
9720;SDS011;4899;42.644;23.366;2023-01-16T05:30:08;63.07;;;23.27;;
9720;SDS011;4899;42.644;23.366;2023-01-16T05:32:35;60.23;;;22.27;;
9720;SDS011;4899;42.644;23.366;2023-01-16T05:35:00;66.87;;;23.20;;
9720;SDS011;4899;42.644;23.366;2023-01-16T05:37:27;50.03;;;22.87;;
9720;SDS011;4899;42.644;23.366;2023-01-16T05:39:53;41.33;;;21.57;;
9720;SDS011;4899;42.644;23.366;2023-01-16T05:42:22;40.03;;;20.67;;
9720;SDS011;4899;42.644;23.366;2023-01-16T05:44:50;38.70;;;22.30;;
9720;SDS011;4899;42.644;23.366;2023-01-16T05:47:17;63.77;;;21.67;;
9720;SDS011;4899;42.644;23.366;2023-01-16T05:49:43;176.07;;;25.20;;
9720;SDS011;4899;42.644;23.366;2023-01-16T05:52:09;62.83;;;22.97;;
9720;SDS011;4899;42.644;23.366;2023-01-16T05:54:35;393.27;;;32.10;;
9720;SDS011;4899;42.644;23.366;2023-01-16T05:57:00;98.60;;;21.57;;
9720;SDS011;4899;42.644;23.366;2023-01-16T05:59:26;27.63;;;18.10;;
9720;SDS011;4899;42.644;23.366;2023-01-16T06:01:51;33.13;;;19.87;;
9720;SDS011;4899;42.644;23.366;2023-01-16T06:04:17;60.00;;;20.67;;
9720;SDS011;4899;42.644;23.366;2023-01-16T06:06:44;58.17;;;22.87;;
9720;SDS011;4899;42.644;23.366;2023-01-16T06:09:10;110.23;;;25.67;;
9720;SDS011;4899;42.644;23.366;2023-01-16T06:11:36;64.30;;;25.00;;
9720;SDS011;4899;42.644;23.366;2023-01-16T06:14:02;82.17;;;31.77;;
9720;SDS011;4899;42.644;23.366;2023-01-16T06:16:29;51.77;;;26.43;;
9720;SDS011;4899;42.644;23.366;2023-01-16T06:18:55;57.00;;;24.50;;
9720;SDS011;4899;42.644;23.366;2023-01-16T06:21:21;55.27;;;21.50;;
9720;SDS011;4899;42.644;23.366;2023-01-16T06:23:47;76.47;;;23.80;;
9720;SDS011;4899;42.644;23.366;2023-01-16T06:26:12;55.60;;;22.47;;
9720;SDS011;4899;42.644;23.366;2023-01-16T06:28:38;96.60;;;24.87;;
9720;SDS011;4899;42.644;23.366;2023-01-16T06:31:04;72.90;;;24.17;;
9720;SDS011;4899;42.644;23.366;2023-01-16T06:33:30;145.50;;;26.10;;
9720;SDS011;4899;42.644;23.366;2023-01-16T06:35:56;59.23;;;23.90;;
9720;SDS011;4899;42.644;23.366;2023-01-16T06:38:22;95.47;;;23.50;;
9720;SDS011;4899;42.644;23.366;2023-01-16T06:40:48;94.80;;;25.30;;
9720;SDS011;4899;42.644;23.366;2023-01-16T06:43:13;127.07;;;28.10;;
9720;SDS011;4899;42.644;23.366;2023-01-16T06:45:41;86.53;;;25.57;;
9720;SDS011;4899;42.644;23.366;2023-01-16T06:48:09;131.30;;;29.10;;
9720;SDS011;4899;42.644;23.366;2023-01-16T06:50:34;176.67;;;33.37;;
9720;SDS011;4899;42.644;23.366;2023-01-16T06:53:00;74.93;;;29.13;;
9720;SDS011;4899;42.644;23.366;2023-01-16T06:55:25;56.37;;;25.23;;
9720;SDS011;4899;42.644;23.366;2023-01-16T06:57:51;53.63;;;26.27;;
9720;SDS011;4899;42.644;23.366;2023-01-16T07:00:16;54.07;;;27.20;;
9720;SDS011;4899;42.644;23.366;2023-01-16T07:02:42;61.37;;;26.70;;
9720;SDS011;4899;42.644;23.366;2023-01-16T07:05:10;55.43;;;26.13;;
9720;SDS011;4899;42.644;23.366;2023-01-16T07:07:36;44.00;;;24.60;;
9720;SDS011;4899;42.644;23.366;2023-01-16T07:10:02;49.27;;;24.83;;
9720;SDS011;4899;42.644;23.366;2023-01-16T07:12:28;64.27;;;28.27;;
9720;SDS011;4899;42.644;23.366;2023-01-16T07:14:54;69.70;;;27.73;;
9720;SDS011;4899;42.644;23.366;2023-01-16T07:17:38;98.37;;;32.13;;
9720;SDS011;4899;42.644;23.366;2023-01-16T07:20:23;115.37;;;33.80;;
9720;SDS011;4899;42.644;23.366;2023-01-16T07:23:13;70.93;;;30.30;;
9720;SDS011;4899;42.644;23.366;2023-01-16T07:25:51;61.63;;;29.77;;
9720;SDS011;4899;42.644;23.366;2023-01-16T07:28:18;57.20;;;27.50;;
9720;SDS011;4899;42.644;23.366;2023-01-16T07:30:44;53.53;;;28.47;;
9720;SDS011;4899;42.644;23.366;2023-01-16T07:33:11;51.07;;;26.70;;
9720;SDS011;4899;42.644;23.366;2023-01-16T07:35:36;49.73;;;26.03;;
9720;SDS011;4899;42.644;23.366;2023-01-16T07:38:02;57.30;;;26.40;;
9720;SDS011;4899;42.644;23.366;2023-01-16T07:40:28;62.27;;;25.80;;
9720;SDS011;4899;42.644;23.366;2023-01-16T07:42:53;50.40;;;25.70;;
9720;SDS011;4899;42.644;23.366;2023-01-16T07:45:19;89.67;;;26.97;;
9720;SDS011;4899;42.644;23.366;2023-01-16T07:47:44;90.83;;;30.40;;
9720;SDS011;4899;42.644;23.366;2023-01-16T07:50:10;103.03;;;28.87;;
9720;SDS011;4899;42.644;23.366;2023-01-16T07:52:35;137.80;;;28.53;;
9720;SDS011;4899;42.644;23.366;2023-01-16T07:55:01;89.37;;;26.97;;
9720;SDS011;4899;42.644;23.366;2023-01-16T07:57:26;60.43;;;26.87;;
9720;SDS011;4899;42.644;23.366;2023-01-16T07:59:52;55.90;;;27.33;;
9720;SDS011;4899;42.644;23.366;2023-01-16T08:02:19;69.13;;;29.40;;
9720;SDS011;4899;42.644;23.366;2023-01-16T08:04:45;45.20;;;29.07;;
9720;SDS011;4899;42.644;23.366;2023-01-16T08:07:10;62.23;;;30.13;;
9720;SDS011;4899;42.644;23.366;2023-01-16T08:09:36;56.63;;;30.97;;
9720;SDS011;4899;42.644;23.366;2023-01-16T08:12:02;58.23;;;29.87;;
9720;SDS011;4899;42.644;23.366;2023-01-16T08:14:27;47.10;;;28.43;;
9720;SDS011;4899;42.644;23.366;2023-01-16T08:16:53;45.43;;;27.73;;
9720;SDS011;4899;42.644;23.366;2023-01-16T08:19:19;47.70;;;27.43;;
9720;SDS011;4899;42.644;23.366;2023-01-16T08:21:44;51.77;;;29.00;;
9720;SDS011;4899;42.644;23.366;2023-01-16T08:24:10;55.37;;;29.57;;
9720;SDS011;4899;42.644;23.366;2023-01-16T08:26:38;60.00;;;31.07;;
9720;SDS011;4899;42.644;23.366;2023-01-16T08:29:03;57.83;;;31.37;;
9720;SDS011;4899;42.644;23.366;2023-01-16T08:31:29;60.03;;;31.63;;
9720;SDS011;4899;42.644;23.366;2023-01-16T08:33:55;51.10;;;30.73;;
9720;SDS011;4899;42.644;23.366;2023-01-16T08:36:21;57.00;;;33.13;;
9720;SDS011;4899;42.644;23.366;2023-01-16T08:38:47;58.80;;;34.80;;
9720;SDS011;4899;42.644;23.366;2023-01-16T08:41:13;70.33;;;40.47;;
9720;SDS011;4899;42.644;23.366;2023-01-16T08:43:59;66.20;;;40.00;;
9720;SDS011;4899;42.644;23.366;2023-01-16T08:46:52;69.00;;;40.30;;
9720;SDS011;4899;42.644;23.366;2023-01-16T08:49:39;60.10;;;36.43;;
9720;SDS011;4899;42.644;23.366;2023-01-16T08:52:24;58.40;;;36.27;;
9720;SDS011;4899;42.644;23.366;2023-01-16T08:54:52;50.27;;;33.53;;
9720;SDS011;4899;42.644;23.366;2023-01-16T08:57:19;55.23;;;35.10;;
9720;SDS011;4899;42.644;23.366;2023-01-16T08:59:45;49.33;;;31.13;;
9720;SDS011;4899;42.644;23.366;2023-01-16T09:02:10;49.47;;;30.57;;
9720;SDS011;4899;42.644;23.366;2023-01-16T09:04:36;55.30;;;32.70;;
9720;SDS011;4899;42.644;23.366;2023-01-16T09:07:02;53.67;;;32.93;;
9720;SDS011;4899;42.644;23.366;2023-01-16T09:09:27;58.07;;;33.57;;
9720;SDS011;4899;42.644;23.366;2023-01-16T09:11:55;47.70;;;31.50;;
9720;SDS011;4899;42.644;23.366;2023-01-16T09:14:40;54.30;;;34.77;;
9720;SDS011;4899;42.644;23.366;2023-01-16T09:17:06;59.77;;;37.20;;
9720;SDS011;4899;42.644;23.366;2023-01-16T09:19:33;55.87;;;33.73;;
9720;SDS011;4899;42.644;23.366;2023-01-16T09:21:59;51.43;;;32.93;;
9720;SDS011;4899;42.644;23.366;2023-01-16T09:24:24;55.07;;;35.47;;
9720;SDS011;4899;42.644;23.366;2023-01-16T09:26:50;56.33;;;35.70;;
9720;SDS011;4899;42.644;23.366;2023-01-16T09:29:16;50.97;;;34.00;;
9720;SDS011;4899;42.644;23.366;2023-01-16T09:31:41;51.70;;;32.73;;
9720;SDS011;4899;42.644;23.366;2023-01-16T09:34:07;53.03;;;32.87;;
9720;SDS011;4899;42.644;23.366;2023-01-16T09:36:32;49.83;;;32.07;;
9720;SDS011;4899;42.644;23.366;2023-01-16T09:38:58;48.87;;;30.23;;
9720;SDS011;4899;42.644;23.366;2023-01-16T09:41:23;44.47;;;30.27;;
9720;SDS011;4899;42.644;23.366;2023-01-16T09:44:10;49.90;;;32.33;;
9720;SDS011;4899;42.644;23.366;2023-01-16T09:46:40;51.93;;;30.87;;
9720;SDS011;4899;42.644;23.366;2023-01-16T09:49:16;53.57;;;33.10;;
9720;SDS011;4899;42.644;23.366;2023-01-16T09:51:49;52.63;;;32.83;;
9720;SDS011;4899;42.644;23.366;2023-01-16T09:54:42;53.13;;;32.27;;
9720;SDS011;4899;42.644;23.366;2023-01-16T09:57:33;53.97;;;32.23;;
9720;SDS011;4899;42.644;23.366;2023-01-16T10:00:19;51.60;;;29.90;;
9720;SDS011;4899;42.644;23.366;2023-01-16T10:02:47;43.57;;;29.13;;
9720;SDS011;4899;42.644;23.366;2023-01-16T10:05:13;44.13;;;29.57;;
9720;SDS011;4899;42.644;23.366;2023-01-16T10:24:49;40.93;;;25.83;;
9720;SDS011;4899;42.644;23.366;2023-01-16T10:27:33;40.80;;;26.43;;
9720;SDS011;4899;42.644;23.366;2023-01-16T10:30:18;39.77;;;26.57;;
9720;SDS011;4899;42.644;23.366;2023-01-16T10:35:29;40.57;;;26.03;;
9720;SDS011;4899;42.644;23.366;2023-01-16T10:41:00;40.77;;;26.40;;
9720;SDS011;4899;42.644;23.366;2023-01-16T10:43:46;39.23;;;25.83;;
9720;SDS011;4899;42.644;23.366;2023-01-16T10:46:31;36.27;;;26.00;;
9720;SDS011;4899;42.644;23.366;2023-01-16T10:49:15;39.80;;;26.57;;
9720;SDS011;4899;42.644;23.366;2023-01-16T10:51:57;35.90;;;26.80;;
9720;SDS011;4899;42.644;23.366;2023-01-16T10:54:25;38.43;;;27.17;;
9720;SDS011;4899;42.644;23.366;2023-01-16T10:56:51;34.90;;;26.93;;
9720;SDS011;4899;42.644;23.366;2023-01-16T10:59:16;40.60;;;27.73;;
9720;SDS011;4899;42.644;23.366;2023-01-16T11:01:43;44.70;;;28.33;;
9720;SDS011;4899;42.644;23.366;2023-01-16T11:04:10;37.83;;;27.13;;
9720;SDS011;4899;42.644;23.366;2023-01-16T11:06:37;39.77;;;27.17;;
9720;SDS011;4899;42.644;23.366;2023-01-16T11:09:15;39.37;;;26.90;;
9720;SDS011;4899;42.644;23.366;2023-01-16T11:11:43;37.50;;;24.73;;
9720;SDS011;4899;42.644;23.366;2023-01-16T11:17:28;32.07;;;23.53;;
9720;SDS011;4899;42.644;23.366;2023-01-16T11:20:21;32.20;;;24.03;;
9720;SDS011;4899;42.644;23.366;2023-01-16T11:22:55;36.37;;;24.27;;
9720;SDS011;4899;42.644;23.366;2023-01-16T11:25:28;34.27;;;25.23;;
9720;SDS011;4899;42.644;23.366;2023-01-16T11:27:55;32.30;;;25.70;;
9720;SDS011;4899;42.644;23.366;2023-01-16T11:30:31;34.40;;;23.53;;
9720;SDS011;4899;42.644;23.366;2023-01-16T11:33:01;37.20;;;25.23;;
9720;SDS011;4899;42.644;23.366;2023-01-16T11:35:33;34.10;;;26.33;;
9720;SDS011;4899;42.644;23.366;2023-01-16T11:38:00;33.90;;;24.70;;
9720;SDS011;4899;42.644;23.366;2023-01-16T11:40:43;34.73;;;25.13;;
9720;SDS011;4899;42.644;23.366;2023-01-16T11:43:15;35.07;;;25.07;;
9720;SDS011;4899;42.644;23.366;2023-01-16T11:46:05;30.97;;;24.33;;
9720;SDS011;4899;42.644;23.366;2023-01-16T11:48:44;35.27;;;24.33;;
9720;SDS011;4899;42.644;23.366;2023-01-16T11:51:16;32.77;;;24.27;;
9720;SDS011;4899;42.644;23.366;2023-01-16T11:53:45;32.43;;;22.97;;
9720;SDS011;4899;42.644;23.366;2023-01-16T11:56:28;32.33;;;24.07;;
9720;SDS011;4899;42.644;23.366;2023-01-16T11:59:30;29.90;;;22.60;;
9720;SDS011;4899;42.644;23.366;2023-01-16T12:05:07;31.27;;;22.17;;
9720;SDS011;4899;42.644;23.366;2023-01-16T12:10:45;25.80;;;21.40;;
9720;SDS011;4899;42.644;23.366;2023-01-16T12:13:49;29.90;;;21.90;;
9720;SDS011;4899;42.644;23.366;2023-01-16T12:33:55;27.37;;;19.07;;
9720;SDS011;4899;42.644;23.366;2023-01-16T12:47:26;31.93;;;22.10;;
9720;SDS011;4899;42.644;23.366;2023-01-16T12:50:03;28.70;;;21.57;;
9720;SDS011;4899;42.644;23.366;2023-01-16T12:52:47;26.00;;;19.53;;
9720;SDS011;4899;42.644;23.366;2023-01-16T12:58:08;26.77;;;20.07;;
9720;SDS011;4899;42.644;23.366;2023-01-16T13:03:32;28.87;;;19.73;;
9720;SDS011;4899;42.644;23.366;2023-01-16T13:06:05;25.77;;;19.43;;
9720;SDS011;4899;42.644;23.366;2023-01-16T13:08:37;25.90;;;19.77;;
9720;SDS011;4899;42.644;23.366;2023-01-16T13:11:20;24.90;;;19.37;;
9720;SDS011;4899;42.644;23.366;2023-01-16T13:14:09;23.70;;;17.37;;
9720;SDS011;4899;42.644;23.366;2023-01-16T13:16:38;23.63;;;16.53;;
9720;SDS011;4899;42.644;23.366;2023-01-16T13:19:16;24.27;;;17.50;;
9720;SDS011;4899;42.644;23.366;2023-01-16T13:24:22;21.77;;;15.80;;
9720;SDS011;4899;42.644;23.366;2023-01-16T13:27:00;20.27;;;16.20;;
9720;SDS011;4899;42.644;23.366;2023-01-16T13:35:12;22.20;;;16.60;;
9720;SDS011;4899;42.644;23.366;2023-01-16T13:37:58;20.77;;;16.33;;
9720;SDS011;4899;42.644;23.366;2023-01-16T13:40:44;20.13;;;16.13;;
9720;SDS011;4899;42.644;23.366;2023-01-16T13:43:31;23.03;;;17.40;;
9720;SDS011;4899;42.644;23.366;2023-01-16T13:46:19;19.17;;;16.07;;
9720;SDS011;4899;42.644;23.366;2023-01-16T13:48:49;20.03;;;15.20;;
9720;SDS011;4899;42.644;23.366;2023-01-16T13:51:17;22.73;;;17.77;;
9720;SDS011;4899;42.644;23.366;2023-01-16T13:53:47;24.70;;;18.20;;
9720;SDS011;4899;42.644;23.366;2023-01-16T13:56:20;19.87;;;16.03;;
9720;SDS011;4899;42.644;23.366;2023-01-16T13:58:54;21.33;;;16.10;;
9720;SDS011;4899;42.644;23.366;2023-01-16T14:01:29;21.83;;;16.60;;
9720;SDS011;4899;42.644;23.366;2023-01-16T14:06:50;20.60;;;15.70;;
9720;SDS011;4899;42.644;23.366;2023-01-16T14:12:31;21.57;;;16.13;;
9720;SDS011;4899;42.644;23.366;2023-01-16T14:15:15;21.70;;;15.63;;
9720;SDS011;4899;42.644;23.366;2023-01-16T14:18:13;23.37;;;16.23;;
9720;SDS011;4899;42.644;23.366;2023-01-16T14:20:44;24.93;;;17.03;;
9720;SDS011;4899;42.644;23.366;2023-01-16T14:23:25;24.63;;;16.67;;
9720;SDS011;4899;42.644;23.366;2023-01-16T14:26:16;19.83;;;14.50;;
9720;SDS011;4899;42.644;23.366;2023-01-16T14:29:13;23.17;;;15.73;;
9720;SDS011;4899;42.644;23.366;2023-01-16T14:31:56;21.07;;;13.63;;
9720;SDS011;4899;42.644;23.366;2023-01-16T14:34:36;18.57;;;12.90;;
9720;SDS011;4899;42.644;23.366;2023-01-16T14:37:32;22.20;;;13.13;;
9720;SDS011;4899;42.644;23.366;2023-01-16T14:45:36;15.77;;;13.40;;
9720;SDS011;4899;42.644;23.366;2023-01-16T14:54:02;19.23;;;13.80;;
9720;SDS011;4899;42.644;23.366;2023-01-16T14:56:58;20.43;;;14.83;;
9720;SDS011;4899;42.644;23.366;2023-01-16T14:59:32;18.53;;;14.70;;
9720;SDS011;4899;42.644;23.366;2023-01-16T15:10:23;19.70;;;15.73;;
9720;SDS011;4899;42.644;23.366;2023-01-16T15:12:54;21.43;;;16.23;;
9720;SDS011;4899;42.644;23.366;2023-01-16T15:15:46;21.77;;;14.13;;
9720;SDS011;4899;42.644;23.366;2023-01-16T15:18:16;19.97;;;15.73;;
9720;SDS011;4899;42.644;23.366;2023-01-16T15:21:01;20.80;;;15.20;;
9720;SDS011;4899;42.644;23.366;2023-01-16T15:23:46;20.63;;;14.93;;
9720;SDS011;4899;42.644;23.366;2023-01-16T15:26:20;20.97;;;16.53;;
9720;SDS011;4899;42.644;23.366;2023-01-16T15:32:12;22.60;;;16.70;;
9720;SDS011;4899;42.644;23.366;2023-01-16T15:34:43;21.90;;;15.87;;
9720;SDS011;4899;42.644;23.366;2023-01-16T15:37:27;21.43;;;16.13;;
9720;SDS011;4899;42.644;23.366;2023-01-16T15:39:53;21.07;;;16.47;;
9720;SDS011;4899;42.644;23.366;2023-01-16T15:42:23;21.90;;;16.07;;
9720;SDS011;4899;42.644;23.366;2023-01-16T15:45:23;21.27;;;17.47;;
9720;SDS011;4899;42.644;23.366;2023-01-16T15:53:16;24.93;;;18.93;;
9720;SDS011;4899;42.644;23.366;2023-01-16T15:55:44;25.70;;;17.90;;
9720;SDS011;4899;42.644;23.366;2023-01-16T15:58:14;25.27;;;18.33;;
9720;SDS011;4899;42.644;23.366;2023-01-16T16:00:42;27.70;;;19.20;;
9720;SDS011;4899;42.644;23.366;2023-01-16T16:03:19;25.77;;;18.67;;
9720;SDS011;4899;42.644;23.366;2023-01-16T16:05:50;26.77;;;17.43;;
9720;SDS011;4899;42.644;23.366;2023-01-16T16:08:24;24.57;;;18.13;;
9720;SDS011;4899;42.644;23.366;2023-01-16T16:10:52;26.47;;;18.70;;
9720;SDS011;4899;42.644;23.366;2023-01-16T16:13:38;25.07;;;18.80;;
9720;SDS011;4899;42.644;23.366;2023-01-16T16:16:14;23.93;;;18.77;;
9720;SDS011;4899;42.644;23.366;2023-01-16T16:19:00;25.07;;;19.17;;
9720;SDS011;4899;42.644;23.366;2023-01-16T16:21:29;23.90;;;18.83;;
9720;SDS011;4899;42.644;23.366;2023-01-16T16:24:00;24.87;;;18.33;;
9720;SDS011;4899;42.644;23.366;2023-01-16T16:26:29;24.03;;;17.67;;
9720;SDS011;4899;42.644;23.366;2023-01-16T16:28:59;26.37;;;18.80;;
9720;SDS011;4899;42.644;23.366;2023-01-16T16:31:29;22.40;;;18.73;;
9720;SDS011;4899;42.644;23.366;2023-01-16T16:34:02;25.03;;;18.40;;
9720;SDS011;4899;42.644;23.366;2023-01-16T16:36:38;31.87;;;22.70;;
9720;SDS011;4899;42.644;23.366;2023-01-16T16:39:18;25.63;;;18.67;;
9720;SDS011;4899;42.644;23.366;2023-01-16T16:41:59;28.47;;;19.77;;
9720;SDS011;4899;42.644;23.366;2023-01-16T16:45:07;25.10;;;19.73;;
9720;SDS011;4899;42.644;23.366;2023-01-16T16:47:37;27.90;;;19.13;;
9720;SDS011;4899;42.644;23.366;2023-01-16T16:55:41;25.60;;;19.27;;
9720;SDS011;4899;42.644;23.366;2023-01-16T16:58:14;30.07;;;20.57;;
9720;SDS011;4899;42.644;23.366;2023-01-16T17:00:42;27.40;;;19.57;;
9720;SDS011;4899;42.644;23.366;2023-01-16T17:03:12;31.13;;;20.30;;
9720;SDS011;4899;42.644;23.366;2023-01-16T17:05:41;27.00;;;17.90;;
9720;SDS011;4899;42.644;23.366;2023-01-16T17:08:10;29.77;;;21.60;;
9720;SDS011;4899;42.644;23.366;2023-01-16T17:10:40;21.77;;;16.30;;
9720;SDS011;4899;42.644;23.366;2023-01-16T17:13:07;15.33;;;11.67;;
9720;SDS011;4899;42.644;23.366;2023-01-16T17:15:35;22.10;;;17.47;;
9720;SDS011;4899;42.644;23.366;2023-01-16T17:18:01;30.33;;;24.50;;
9720;SDS011;4899;42.644;23.366;2023-01-16T17:20:27;18.50;;;13.70;;
9720;SDS011;4899;42.644;23.366;2023-01-16T17:22:52;14.67;;;12.17;;
9720;SDS011;4899;42.644;23.366;2023-01-16T17:25:19;12.13;;;10.17;;
9720;SDS011;4899;42.644;23.366;2023-01-16T17:27:49;14.17;;;10.43;;
9720;SDS011;4899;42.644;23.366;2023-01-16T17:30:16;16.87;;;13.13;;
9720;SDS011;4899;42.644;23.366;2023-01-16T17:32:43;15.30;;;12.47;;
9720;SDS011;4899;42.644;23.366;2023-01-16T17:35:13;16.20;;;13.60;;
9720;SDS011;4899;42.644;23.366;2023-01-16T17:37:40;29.07;;;19.80;;
9720;SDS011;4899;42.644;23.366;2023-01-16T17:40:06;25.77;;;19.73;;